CheckWX is a tool to help pilots better visualize weather data.  It is not intended as a substitute for an official pre-flight weather briefing.

22:34:44 UTC

KSMO TAF
Santa Monica Municipal Airport
Santa Monica, California, USA
KSMO 232339Z 2400/2424 24010KT P6SM SKC FM240400 VRB03KT P6SM SKC FM240700 13005KT P6SM OVC018 FM241600 13005KT P6SM SCT018 FM241900 23010KT P6SM SKC

May-24@
00:00 UTC

May-24 @ 00:00 UTC

May-24@
04:00 UTC

May-24 @ 04:00 UTC

TAF KSMO 232339Z 2400/2424 24010KT P6SM SKC

Expired

Wind
  • 240° at 10 KTS
Cloud Levels
  • Clear skies

May-24@
04:00 UTC

May-24 @ 04:00 UTC

May-24@
07:00 UTC

May-24 @ 07:00 UTC

FM240400 VRB03KT P6SM SKC

Expired

Wind
  • Variable at 3 KTS
Cloud Levels
  • Clear skies

May-24@
07:00 UTC

May-24 @ 07:00 UTC

May-24@
16:00 UTC

May-24 @ 16:00 UTC

FM240700 13005KT P6SM OVC018

Expired

Wind
  • 130° at 5 KTS
Cloud Levels
  • Overcast at 1,800' AGL

May-24@
16:00 UTC

May-24 @ 16:00 UTC

May-24@
19:00 UTC

May-24 @ 19:00 UTC

FM241600 13005KT P6SM SCT018

Expired

Wind
  • 130° at 5 KTS
Cloud Levels
  • Scattered at 1,800' AGL

May-24@
19:00 UTC

May-24 @ 19:00 UTC

May-25@
00:00 UTC

May-25 @ 00:00 UTC

FM241900 23010KT P6SM SKC

From

From Standard forecast or significant change

Wind
  • 230° at 10 KTS
Cloud Levels
  • Clear skies